Time;durP1;ratioP1;P1;durP2;ratioP2;P2;SDS_P1;SDS_P2;PMS_P1;PMS_P2;Temp;Humidity;BMP_temperature;BMP_pressure;BME280_temperature;BME280_humidity;BME280_pressure;Samples;Min_cycle;Max_cycle;Signal;HPM_P1;HPM_P2
2022/10/13 00:00:29;;;;;;;20.15;10.98;;;;;;;;;;4990839;28;20022;-78
2022/10/13 00:02:58;;;;;;;20.00;11.63;;;;;;;;;;5005997;28;20022;-77
2022/10/13 00:05:24;;;;;;;21.85;10.55;;;;;;;;;;4990823;28;20015;-77
2022/10/13 00:07:50;;;;;;;22.40;11.07;;;;;;;;;;5005257;28;20026;-78
2022/10/13 00:10:16;;;;;;;19.92;10.57;;;;;;;;;;5011647;28;20100;-79
2022/10/13 00:12:42;;;;;;;18.70;10.23;;;;;;;;;;5011696;28;20110;-80
2022/10/13 00:15:11;;;;;;;15.65;10.35;;;;;;;;;;4994474;28;20057;-79
2022/10/13 00:17:36;;;;;;;23.85;11.43;;;;;;;;;;5008707;28;20472;-80
2022/10/13 00:20:04;;;;;;;23.58;12.18;;;;;;;;;;5015651;28;20053;-80
2022/10/13 00:22:30;;;;;;;20.60;11.32;;;;;;;;;;5015263;28;20025;-78
2022/10/13 00:24:56;;;;;;;20.27;10.18;;;;;;;;;;5014961;28;20106;-77
2022/10/13 00:27:21;;;;;;;18.60;11.18;;;;;;;;;;4997457;28;20025;-77
2022/10/13 00:29:50;;;;;;;19.65;10.35;;;;;;;;;;5015013;28;20076;-78
2022/10/13 00:32:16;;;;;;;24.27;11.13;;;;;;;;;;5014932;28;20076;-77
2022/10/13 00:34:42;;;;;;;24.40;12.15;;;;;;;;;;5016066;28;20157;-79
2022/10/13 00:37:08;;;;;;;19.55;11.73;;;;;;;;;;5014737;28;20109;-78
2022/10/13 00:39:34;;;;;;;17.38;10.35;;;;;;;;;;5014879;28;20029;-79
2022/10/13 00:42:03;;;;;;;21.58;12.15;;;;;;;;;;5014748;28;20022;-79
2022/10/13 00:44:49;;;;;;;23.13;11.77;;;;;;;;;;4997380;28;20037;-79
2022/10/13 00:47:15;;;;;;;23.65;12.27;;;;;;;;;;5004139;28;20018;-79
2022/10/13 00:49:41;;;;;;;23.05;11.93;;;;;;;;;;5014946;28;20510;-79
2022/10/13 00:52:13;;;;;;;21.35;11.77;;;;;;;;;;5015096;28;20026;-79
2022/10/13 00:54:39;;;;;;;20.15;11.73;;;;;;;;;;5014606;28;20034;-78
2022/10/13 00:57:06;;;;;;;24.63;11.82;;;;;;;;;;5015316;28;20034;-79
2022/10/13 00:59:33;;;;;;;28.25;12.57;;;;;;;;;;5018444;28;20022;-80
2022/10/13 01:02:00;;;;;;;23.85;12.35;;;;;;;;;;5016213;28;20022;-77
2022/10/13 01:04:27;;;;;;;22.45;11.35;;;;;;;;;;5014370;28;20026;-78
2022/10/13 01:06:54;;;;;;;20.67;11.43;;;;;;;;;;5014030;28;20054;-78
2022/10/13 01:09:23;;;;;;;21.75;11.60;;;;;;;;;;5014446;28;20053;-79
2022/10/13 01:11:55;;;;;;;20.45;11.43;;;;;;;;;;4996742;28;20192;-78
2022/10/13 01:14:30;;;;;;;20.85;11.38;;;;;;;;;;5014199;28;20121;-78
2022/10/13 01:16:56;;;;;;;23.95;10.73;;;;;;;;;;5014205;28;20084;-78
2022/10/13 01:19:25;;;;;;;20.25;11.00;;;;;;;;;;5013823;28;20025;-79
2022/10/13 01:22:01;;;;;;;20.50;11.88;;;;;;;;;;5013513;28;20025;-77
2022/10/13 01:24:50;;;;;;;20.48;11.80;;;;;;;;;;4996665;28;20105;-81
2022/10/13 01:27:16;;;;;;;29.30;12.43;;;;;;;;;;5013679;28;20018;-75
2022/10/13 01:30:02;;;;;;;19.08;10.63;;;;;;;;;;5014379;28;20468;-79
2022/10/13 01:32:31;;;;;;;19.50;10.18;;;;;;;;;;5014019;28;20045;-79
2022/10/13 01:35:05;;;;;;;16.23;10.20;;;;;;;;;;4996097;28;20480;-78
2022/10/13 01:37:55;;;;;;;18.80;10.77;;;;;;;;;;4992780;28;20030;-80
2022/10/13 01:40:27;;;;;;;15.90;9.25;;;;;;;;;;4995553;28;20026;-78
2022/10/13 01:42:56;;;;;;;19.23;11.30;;;;;;;;;;5013980;28;20030;-78
2022/10/13 01:45:25;;;;;;;19.35;10.82;;;;;;;;;;5014012;28;20022;-78
2022/10/13 01:47:52;;;;;;;21.77;11.15;;;;;;;;;;5013364;28;20026;-79
2022/10/13 01:50:19;;;;;;;28.67;10.70;;;;;;;;;;5014522;28;20112;-81
2022/10/13 01:52:45;;;;;;;22.45;10.07;;;;;;;;;;4996284;28;20040;-79
2022/10/13 01:55:12;;;;;;;18.23;10.02;;;;;;;;;;5013047;28;20480;-79
2022/10/13 01:57:42;;;;;;;21.05;11.02;;;;;;;;;;4995904;28;20114;-79
2022/10/13 02:00:10;;;;;;;22.17;11.57;;;;;;;;;;5013189;28;20018;-79
2022/10/13 02:02:39;;;;;;;16.13;10.75;;;;;;;;;;5013855;28;20022;-79
2022/10/13 02:05:05;;;;;;;23.25;11.55;;;;;;;;;;5013384;28;20026;-78
2022/10/13 02:07:33;;;;;;;25.38;11.25;;;;;;;;;;5013280;28;20105;-80
2022/10/13 02:10:05;;;;;;;19.27;11.45;;;;;;;;;;5013521;28;20026;-79
2022/10/13 02:12:48;;;;;;;24.20;11.45;;;;;;;;;;5014807;28;20040;-79
2022/10/13 02:15:17;;;;;;;19.65;11.02;;;;;;;;;;4999609;28;20395;-79
2022/10/13 02:17:43;;;;;;;23.67;11.57;;;;;;;;;;5012939;28;20034;-79
2022/10/13 02:20:10;;;;;;;15.80;10.68;;;;;;;;;;5012776;28;20391;-79
2022/10/13 02:22:39;;;;;;;21.58;11.13;;;;;;;;;;5013093;28;20029;-78
2022/10/13 02:25:06;;;;;;;22.73;12.10;;;;;;;;;;5012898;28;20037;-78
2022/10/13 02:27:32;;;;;;;20.00;10.23;;;;;;;;;;4991852;28;20034;-77
2022/10/13 02:29:58;;;;;;;19.75;11.65;;;;;;;;;;5010285;28;20026;-77
2022/10/13 02:32:24;;;;;;;22.50;11.10;;;;;;;;;;5012806;28;20033;-79
2022/10/13 02:34:50;;;;;;;23.38;11.98;;;;;;;;;;5012843;28;20030;-79
2022/10/13 02:37:16;;;;;;;25.17;11.52;;;;;;;;;;5011678;28;20449;-78
2022/10/13 02:39:42;;;;;;;22.02;12.18;;;;;;;;;;5013064;28;20377;-79
2022/10/13 02:42:09;;;;;;;16.52;11.23;;;;;;;;;;4992069;28;20029;-78
2022/10/13 02:44:35;;;;;;;22.98;11.75;;;;;;;;;;5007692;28;20455;-79
2022/10/13 02:47:01;;;;;;;18.65;11.45;;;;;;;;;;4993317;28;20023;-79
2022/10/13 02:49:29;;;;;;;19.48;10.73;;;;;;;;;;4993478;28;20408;-79
2022/10/13 02:51:55;;;;;;;23.42;11.75;;;;;;;;;;5015143;28;20065;-80
2022/10/13 02:54:21;;;;;;;19.60;10.25;;;;;;;;;;5016737;28;20030;-79
2022/10/13 02:56:47;;;;;;;23.65;11.68;;;;;;;;;;5018149;28;20040;-81
2022/10/13 02:59:13;;;;;;;17.40;10.85;;;;;;;;;;5002928;28;20109;-80
2022/10/13 03:01:41;;;;;;;22.00;10.52;;;;;;;;;;5035596;28;20037;-80
2022/10/13 03:04:10;;;;;;;19.80;11.35;;;;;;;;;;5036689;28;20189;-85
2022/10/13 03:06:36;;;;;;;21.23;11.50;;;;;;;;;;5017522;28;20017;-80
2022/10/13 03:09:02;;;;;;;23.10;11.50;;;;;;;;;;4996775;28;20034;-78
2022/10/13 03:11:29;;;;;;;22.33;10.82;;;;;;;;;;5012400;28;20022;-78
2022/10/13 03:13:55;;;;;;;26.95;11.15;;;;;;;;;;5012269;28;20046;-80
2022/10/13 03:16:21;;;;;;;22.42;11.55;;;;;;;;;;5012867;28;20030;-80
2022/10/13 03:18:47;;;;;;;21.30;11.10;;;;;;;;;;5012236;28;20025;-78
2022/10/13 03:21:14;;;;;;;23.30;10.70;;;;;;;;;;5011942;28;20516;-78
2022/10/13 03:23:40;;;;;;;21.90;12.68;;;;;;;;;;4994645;28;20022;-78
2022/10/13 03:26:06;;;;;;;23.45;12.48;;;;;;;;;;5012142;28;20026;-78
2022/10/13 03:28:32;;;;;;;25.55;12.50;;;;;;;;;;5011846;28;20075;-80
2022/10/13 03:31:05;;;;;;;20.65;12.35;;;;;;;;;;5012674;28;20159;-79
2022/10/13 03:33:31;;;;;;;19.15;11.43;;;;;;;;;;5012086;28;20346;-79
2022/10/13 03:35:58;;;;;;;26.35;11.88;;;;;;;;;;4991535;28;20037;-79
2022/10/13 03:38:24;;;;;;;25.17;12.05;;;;;;;;;;5010049;28;20388;-78
2022/10/13 03:40:51;;;;;;;20.90;11.45;;;;;;;;;;4992727;28;20022;-82
2022/10/13 03:43:16;;;;;;;20.33;12.13;;;;;;;;;;5009148;28;20025;-78
2022/10/13 03:45:42;;;;;;;21.58;12.45;;;;;;;;;;5011792;28;20028;-79
2022/10/13 03:48:08;;;;;;;20.52;12.43;;;;;;;;;;5010988;28;20342;-78
2022/10/13 03:50:34;;;;;;;20.00;12.07;;;;;;;;;;5011607;28;20083;-79
2022/10/13 03:53:00;;;;;;;19.00;11.88;;;;;;;;;;4993818;28;20029;-79
2022/10/13 03:55:26;;;;;;;20.92;12.32;;;;;;;;;;5011735;28;20024;-79
2022/10/13 03:57:52;;;;;;;23.85;11.95;;;;;;;;;;4993710;28;20076;-79
2022/10/13 04:00:18;;;;;;;27.88;12.30;;;;;;;;;;5011764;28;20100;-78
2022/10/13 04:02:44;;;;;;;21.33;11.50;;;;;;;;;;5011629;28;20113;-79
2022/10/13 04:05:10;;;;;;;26.10;11.85;;;;;;;;;;5011871;28;20022;-79
2022/10/13 04:07:36;;;;;;;23.60;11.70;;;;;;;;;;5011564;28;20049;-78
2022/10/13 04:10:02;;;;;;;20.13;11.70;;;;;;;;;;5011348;28;20026;-79
2022/10/13 04:12:28;;;;;;;23.02;11.75;;;;;;;;;;5011389;28;20052;-79
2022/10/13 04:14:54;;;;;;;18.55;11.43;;;;;;;;;;5011430;28;20022;-78
2022/10/13 04:17:20;;;;;;;19.75;11.15;;;;;;;;;;4990529;28;20023;-79
2022/10/13 04:19:46;;;;;;;18.25;11.27;;;;;;;;;;5007429;28;20030;-79
2022/10/13 04:22:12;;;;;;;24.75;11.75;;;;;;;;;;5011392;28;20102;-79
2022/10/13 04:24:38;;;;;;;20.48;12.05;;;;;;;;;;5011202;28;20025;-79
2022/10/13 04:27:04;;;;;;;21.85;11.35;;;;;;;;;;5010945;28;20101;-79
2022/10/13 04:29:30;;;;;;;22.17;12.30;;;;;;;;;;5011142;28;20026;-79
2022/10/13 04:31:58;;;;;;;19.35;11.15;;;;;;;;;;4997734;28;20500;-80
2022/10/13 04:34:24;;;;;;;24.33;11.48;;;;;;;;;;5011015;28;20049;-78
2022/10/13 04:36:50;;;;;;;23.65;11.23;;;;;;;;;;5011021;28;20520;-78
2022/10/13 04:39:17;;;;;;;21.90;11.30;;;;;;;;;;5011239;28;20407;-78
2022/10/13 04:41:43;;;;;;;20.17;11.25;;;;;;;;;;5010903;28;20018;-78
2022/10/13 04:44:09;;;;;;;21.83;10.80;;;;;;;;;;5011296;28;20060;-78
2022/10/13 04:46:35;;;;;;;23.27;12.27;;;;;;;;;;5011013;28;20045;-79
2022/10/13 04:49:01;;;;;;;22.58;12.23;;;;;;;;;;5011124;28;20030;-78
2022/10/13 04:51:27;;;;;;;21.95;12.95;;;;;;;;;;5011027;28;20057;-77
2022/10/13 04:53:54;;;;;;;22.65;12.27;;;;;;;;;;5011408;28;20018;-77
2022/10/13 04:56:20;;;;;;;20.83;12.20;;;;;;;;;;4991548;28;20053;-77
2022/10/13 04:58:46;;;;;;;24.27;12.23;;;;;;;;;;5010725;28;20504;-78
2022/10/13 05:01:16;;;;;;;24.17;13.07;;;;;;;;;;5012772;28;20037;-78
2022/10/13 05:03:42;;;;;;;27.85;12.95;;;;;;;;;;4998189;28;20029;-78
2022/10/13 05:06:18;;;;;;;21.95;12.43;;;;;;;;;;5016044;28;20022;-77
2022/10/13 05:08:44;;;;;;;22.23;12.07;;;;;;;;;;5002663;28;20034;-77
2022/10/13 05:11:10;;;;;;;24.13;12.32;;;;;;;;;;5015014;28;20029;-77
2022/10/13 05:13:36;;;;;;;25.13;13.38;;;;;;;;;;5014661;28;20026;-76
2022/10/13 05:16:09;;;;;;;23.45;12.20;;;;;;;;;;4996637;28;20192;-77
2022/10/13 05:18:36;;;;;;;25.40;12.43;;;;;;;;;;5014066;28;20388;-74
2022/10/13 05:21:06;;;;;;;20.38;12.65;;;;;;;;;;5014089;28;20026;-77
2022/10/13 05:23:32;;;;;;;20.13;11.82;;;;;;;;;;4996405;28;20109;-77
2022/10/13 05:26:00;;;;;;;22.23;12.75;;;;;;;;;;5014411;28;20144;-77
2022/10/13 05:28:26;;;;;;;23.23;12.38;;;;;;;;;;5014588;28;20104;-76
2022/10/13 05:30:52;;;;;;;23.17;12.55;;;;;;;;;;5015188;28;20029;-78
2022/10/13 05:33:18;;;;;;;21.08;12.27;;;;;;;;;;5015800;28;20025;-79
2022/10/13 05:35:44;;;;;;;22.95;12.30;;;;;;;;;;5016485;28;20070;-79
2022/10/13 05:38:10;;;;;;;24.38;12.43;;;;;;;;;;5016339;28;20026;-79
2022/10/13 05:40:36;;;;;;;22.42;12.15;;;;;;;;;;5015383;28;20480;-79
2022/10/13 05:43:03;;;;;;;25.23;11.65;;;;;;;;;;5013554;28;20032;-79
2022/10/13 05:45:31;;;;;;;21.15;11.60;;;;;;;;;;5016953;28;20307;-78
2022/10/13 05:47:57;;;;;;;20.08;11.63;;;;;;;;;;4999910;28;20017;-78
2022/10/13 05:50:24;;;;;;;21.15;12.45;;;;;;;;;;5021593;28;20030;-78
2022/10/13 05:52:50;;;;;;;19.63;12.30;;;;;;;;;;5019953;28;20520;-79
2022/10/13 05:55:19;;;;;;;21.95;11.65;;;;;;;;;;4993773;28;20022;-78
2022/10/13 05:57:49;;;;;;;24.75;11.68;;;;;;;;;;4992560;28;20045;-79
2022/10/13 06:00:19;;;;;;;18.10;11.70;;;;;;;;;;4992523;28;20025;-78
2022/10/13 06:02:50;;;;;;;21.87;11.27;;;;;;;;;;5007041;28;20026;-78
2022/10/13 06:05:17;;;;;;;21.58;10.57;;;;;;;;;;5014874;28;20284;-79
2022/10/13 06:07:44;;;;;;;23.52;11.18;;;;;;;;;;5013981;28;20040;-79
2022/10/13 06:10:11;;;;;;;21.77;11.00;;;;;;;;;;5013238;28;20022;-78
2022/10/13 06:12:37;;;;;;;17.70;9.55;;;;;;;;;;5012431;28;20366;-79
2022/10/13 06:15:03;;;;;;;17.33;10.05;;;;;;;;;;5013282;28;20496;-74
2022/10/13 06:17:29;;;;;;;22.58;11.35;;;;;;;;;;5013444;28;20052;-75
2022/10/13 06:19:55;;;;;;;18.35;10.50;;;;;;;;;;5013919;28;20018;-74
2022/10/13 06:22:21;;;;;;;20.60;10.55;;;;;;;;;;4996344;28;20542;-74
2022/10/13 06:24:47;;;;;;;18.42;11.13;;;;;;;;;;5017176;28;20511;-72
2022/10/13 06:27:13;;;;;;;28.65;11.68;;;;;;;;;;5013074;28;20551;-73
2022/10/13 06:29:39;;;;;;;19.70;12.07;;;;;;;;;;4995301;28;20057;-74
2022/10/13 06:32:05;;;;;;;23.63;11.93;;;;;;;;;;5012997;28;20448;-73
2022/10/13 06:34:32;;;;;;;25.27;11.88;;;;;;;;;;5056380;22;20510;-77
2022/10/13 06:36:58;;;;;;;18.02;11.30;;;;;;;;;;5047752;28;20033;-76
2022/10/13 06:39:25;;;;;;;25.10;13.38;;;;;;;;;;5054746;28;20017;-78
2022/10/13 06:41:54;;;;;;;20.92;12.93;;;;;;;;;;5047205;28;20521;-80
2022/10/13 06:44:20;;;;;;;22.30;13.07;;;;;;;;;;5060942;28;20024;-79
2022/10/13 06:46:49;;;;;;;19.60;12.10;;;;;;;;;;5027282;28;20472;-79
2022/10/13 06:49:22;;;;;;;22.55;12.35;;;;;;;;;;5024511;28;20026;-80
2022/10/13 06:51:51;;;;;;;25.33;12.02;;;;;;;;;;5027128;28;20116;-79
2022/10/13 06:54:17;;;;;;;20.27;10.95;;;;;;;;;;5032926;28;20025;-79
2022/10/13 06:56:46;;;;;;;19.02;10.85;;;;;;;;;;5045159;28;20021;-79
2022/10/13 06:59:12;;;;;;;24.23;10.68;;;;;;;;;;5030601;28;20027;-80
2022/10/13 07:01:38;;;;;;;22.58;11.35;;;;;;;;;;5046984;28;20021;-79
2022/10/13 07:04:16;;;;;;;21.40;10.75;;;;;;;;;;5029118;28;20022;-80
2022/10/13 07:06:45;;;;;;;21.17;11.57;;;;;;;;;;5026268;28;20022;-80
2022/10/13 07:09:16;;;;;;;20.10;10.68;;;;;;;;;;5019812;28;20021;-78
2022/10/13 07:11:46;;;;;;;23.08;12.25;;;;;;;;;;5044207;28;20024;-79
2022/10/13 07:14:24;;;;;;;21.98;11.27;;;;;;;;;;5048203;28;20018;-80
2022/10/13 07:17:25;;;;;;;28.15;12.52;;;;;;;;;;5030663;28;20018;-79
2022/10/13 07:19:51;;;;;;;18.83;10.98;;;;;;;;;;5016616;28;20124;-78
2022/10/13 07:22:17;;;;;;;29.63;11.18;;;;;;;;;;5042088;28;20538;-80
2022/10/13 07:24:46;;;;;;;18.80;11.10;;;;;;;;;;5036713;28;20017;-79
2022/10/13 07:27:12;;;;;;;24.58;11.65;;;;;;;;;;5037594;28;20025;-79
2022/10/13 07:29:38;;;;;;;16.67;10.27;;;;;;;;;;5050838;28;20017;-78
2022/10/13 07:32:13;;;;;;;19.67;11.02;;;;;;;;;;5029703;28;20028;-79
2022/10/13 07:34:54;;;;;;;21.75;11.10;;;;;;;;;;5028335;28;20503;-78
2022/10/13 07:37:20;;;;;;;22.10;11.85;;;;;;;;;;5022794;28;20037;-78
2022/10/13 07:39:46;;;;;;;20.98;11.15;;;;;;;;;;5017813;28;20057;-78
2022/10/13 07:42:12;;;;;;;24.45;10.55;;;;;;;;;;5018879;28;20021;-80
2022/10/13 07:44:38;;;;;;;19.90;11.18;;;;;;;;;;5019493;28;20488;-79
2022/10/13 07:47:12;;;;;;;22.77;11.60;;;;;;;;;;5021909;28;20025;-79
2022/10/13 07:49:41;;;;;;;22.55;10.95;;;;;;;;;;5025052;28;20025;-80
2022/10/13 07:52:07;;;;;;;16.45;10.32;;;;;;;;;;5019773;28;20434;-77
2022/10/13 07:54:33;;;;;;;18.42;10.80;;;;;;;;;;5038360;28;20017;-81
2022/10/13 07:57:02;;;;;;;20.85;11.95;;;;;;;;;;5021481;28;20100;-77
2022/10/13 07:59:28;;;;;;;23.85;12.25;;;;;;;;;;5029212;28;20029;-79
2022/10/13 08:01:55;;;;;;;21.48;12.52;;;;;;;;;;5057108;28;20047;-79
2022/10/13 08:04:24;;;;;;;26.98;11.70;;;;;;;;;;5027773;28;20427;-80
2022/10/13 08:07:15;;;;;;;31.30;12.38;;;;;;;;;;5039651;28;20071;-81
2022/10/13 08:09:45;;;;;;;25.67;11.70;;;;;;;;;;5035458;28;20041;-80
2022/10/13 08:12:16;;;;;;;22.40;11.97;;;;;;;;;;5023835;28;20017;-80
2022/10/13 08:14:42;;;;;;;;;;;;;;;;;;5023284;28;20021;-80
2022/10/13 08:17:08;;;;;;;15.73;10.98;;;;;;;;;;5031544;28;19944;-79
2022/10/13 08:19:42;;;;;;;19.27;10.82;;;;;;;;;;5032983;28;20042;-80
2022/10/13 08:22:09;;;;;;;20.42;10.75;;;;;;;;;;5024542;28;20091;-80
2022/10/13 08:24:36;;;;;;;22.38;12.05;;;;;;;;;;5035985;28;20053;-80
2022/10/13 08:27:02;;;;;;;21.42;11.93;;;;;;;;;;5067826;28;20024;-79
2022/10/13 08:29:28;;;;;;;18.27;10.75;;;;;;;;;;5039828;28;20030;-79
2022/10/13 08:35:28;;;;;;;20.60;10.73;;;;;;;;;;5018667;28;20030;-81
2022/10/13 08:38:14;;;;;;;;;;;;;;;;;;;;;
2022/10/13 08:40:47;;;;;;;24.08;11.77;;;;;;;;;;5042484;28;20083;-80
2022/10/13 08:43:49;;;;;;;18.67;11.63;;;;;;;;;;5023738;28;20041;-80
2022/10/13 08:46:18;;;;;;;20.40;11.52;;;;;;;;;;5042241;28;20032;-80
2022/10/13 08:48:44;;;;;;;18.52;10.55;;;;;;;;;;5025192;28;20061;-80
2022/10/13 08:51:14;;;;;;;19.80;10.93;;;;;;;;;;5024405;28;20110;-79
2022/10/13 08:53:41;;;;;;;22.30;11.50;;;;;;;;;;5010637;23;20042;-80
2022/10/13 08:56:23;;;;;;;20.27;11.20;;;;;;;;;;4990438;28;20497;-80
2022/10/13 08:58:53;;;;;;;18.15;11.35;;;;;;;;;;5001990;28;20065;-80
2022/10/13 09:04:39;;;;;;;21.35;11.35;;;;;;;;;;5002465;28;20053;-80
2022/10/13 09:07:08;;;;;;;26.05;11.95;;;;;;;;;;5016911;22;20068;-75
2022/10/13 09:09:35;;;;;;;21.80;11.65;;;;;;;;;;5014141;28;20548;-77
2022/10/13 09:12:01;;;;;;;19.27;11.13;;;;;;;;;;5014499;28;20053;-76
2022/10/13 09:14:28;;;;;;;26.33;11.38;;;;;;;;;;5014395;28;20113;-77
2022/10/13 09:16:55;;;;;;;18.42;9.65;;;;;;;;;;5009337;28;20341;-77
2022/10/13 09:19:35;;;;;;;21.35;11.50;;;;;;;;;;4993952;28;20451;-77
2022/10/13 09:22:19;;;;;;;17.02;11.07;;;;;;;;;;4981813;28;20026;-78
2022/10/13 09:24:45;;;;;;;19.15;11.60;;;;;;;;;;4992819;28;20031;-81
2022/10/13 09:27:14;;;;;;;20.90;11.55;;;;;;;;;;4992901;28;20037;-77
2022/10/13 09:29:40;;;;;;;20.15;10.95;;;;;;;;;;4991401;28;20061;-79
2022/10/13 09:32:24;;;;;;;18.00;11.43;;;;;;;;;;4993174;28;20392;-77
2022/10/13 09:34:51;;;;;;;17.17;10.88;;;;;;;;;;4992696;28;20034;-80
2022/10/13 09:37:21;;;;;;;22.13;11.38;;;;;;;;;;4992826;28;20065;-77
2022/10/13 09:40:00;;;;;;;19.40;11.82;;;;;;;;;;4994154;28;20499;-77
2022/10/13 09:42:26;;;;;;;20.83;11.13;;;;;;;;;;4994776;28;20050;-77
2022/10/13 09:44:57;;;;;;;15.38;10.48;;;;;;;;;;4994037;28;20026;-79
2022/10/13 09:47:25;;;;;;;34.07;12.23;;;;;;;;;;4992512;28;20029;-77
2022/10/13 09:50:02;;;;;;;16.73;10.95;;;;;;;;;;4991544;28;20034;-76
2022/10/13 09:55:28;;;;;;;29.90;11.23;;;;;;;;;;4996110;28;20030;-77
2022/10/13 09:57:56;;;;;;;23.27;10.95;;;;;;;;;;4996866;28;20046;-73
2022/10/13 10:00:23;;;;;;;20.80;11.32;;;;;;;;;;4993817;28;20023;-76
2022/10/13 10:02:55;;;;;;;19.40;10.60;;;;;;;;;;5004625;28;20117;-80
2022/10/13 10:05:33;;;;;;;18.83;11.02;;;;;;;;;;4996199;28;20555;-81
2022/10/13 10:08:02;;;;;;;20.40;10.55;;;;;;;;;;5009363;28;20041;-79
2022/10/13 10:10:33;;;;;;;15.30;9.93;;;;;;;;;;5012768;28;20050;-79
2022/10/13 10:13:00;;;;;;;20.95;10.85;;;;;;;;;;5013541;28;20038;-77
2022/10/13 10:15:49;;;;;;;18.90;10.10;;;;;;;;;;4994032;28;20034;-77
2022/10/13 10:18:27;;;;;;;16.60;9.70;;;;;;;;;;4955040;28;20038;-77
2022/10/13 10:20:56;;;;;;;13.95;9.02;;;;;;;;;;4994609;28;20037;-76
2022/10/13 10:23:22;;;;;;;20.05;10.88;;;;;;;;;;4994351;28;20025;-77
2022/10/13 10:25:58;;;;;;;21.15;10.20;;;;;;;;;;4992207;28;20113;-75
2022/10/13 10:28:42;;;;;;;18.92;9.50;;;;;;;;;;4991907;28;20504;-76
2022/10/13 10:31:23;;;;;;;14.18;8.20;;;;;;;;;;4993459;28;20030;-76
2022/10/13 10:33:52;;;;;;;23.23;10.00;;;;;;;;;;4981810;28;20027;-76
2022/10/13 10:36:24;;;;;;;18.10;9.57;;;;;;;;;;4992836;28;20080;-73
2022/10/13 10:38:51;;;;;;;18.55;9.73;;;;;;;;;;4991513;28;20033;-74
2022/10/13 10:41:40;;;;;;;20.95;9.32;;;;;;;;;;4992897;28;20022;-77
2022/10/13 10:44:10;;;;;;;23.10;9.68;;;;;;;;;;4993297;28;20023;-76
2022/10/13 10:46:39;;;;;;;14.63;8.70;;;;;;;;;;4992174;28;20448;-76
2022/10/13 10:49:18;;;;;;;17.50;9.95;;;;;;;;;;4993198;28;20022;-76
2022/10/13 10:51:44;;;;;;;21.08;11.75;;;;;;;;;;4993433;28;20033;-76
2022/10/13 10:54:25;;;;;;;20.90;10.68;;;;;;;;;;4993168;28;20053;-75
2022/10/13 10:56:54;;;;;;;18.98;9.75;;;;;;;;;;4992613;28;20046;-77
2022/10/13 10:59:23;;;;;;;16.58;9.30;;;;;;;;;;4991903;28;20121;-76
2022/10/13 11:02:10;;;;;;;18.75;9.80;;;;;;;;;;4992640;28;20018;-76
2022/10/13 11:04:39;;;;;;;16.38;9.63;;;;;;;;;;4992796;28;20030;-76
2022/10/13 11:07:10;;;;;;;19.70;9.52;;;;;;;;;;4992690;28;20057;-76
2022/10/13 11:13:02;;;;;;;20.30;7.68;;;;;;;;;;4985796;28;20308;-76
2022/10/13 11:16:04;;;;;;;14.65;8.98;;;;;;;;;;4980927;28;20054;-77
2022/10/13 11:18:48;;;;;;;15.75;8.55;;;;;;;;;;4914432;28;20174;-76
2022/10/13 11:21:14;;;;;;;17.05;8.13;;;;;;;;;;4992615;28;20097;-76
2022/10/13 11:23:45;;;;;;;14.93;8.73;;;;;;;;;;4992761;28;20030;-76
2022/10/13 11:26:40;;;;;;;14.63;8.20;;;;;;;;;;4992433;28;20054;-78
2022/10/13 11:29:15;;;;;;;16.20;9.02;;;;;;;;;;4983280;28;20097;-77
2022/10/13 11:31:49;;;;;;;16.45;9.30;;;;;;;;;;4975149;28;20113;-77
2022/10/13 11:34:33;;;;;;;13.95;8.70;;;;;;;;;;4990926;28;20511;-77
2022/10/13 11:37:01;;;;;;;20.23;8.32;;;;;;;;;;4979345;28;20018;-76
2022/10/13 11:39:27;;;;;;;17.75;7.72;;;;;;;;;;4992204;28;20029;-78
2022/10/13 11:42:11;;;;;;;12.32;7.82;;;;;;;;;;4992058;28;20014;-77
2022/10/13 11:44:49;;;;;;;17.23;8.13;;;;;;;;;;4992006;28;20030;-76
2022/10/13 11:47:34;;;;;;;16.73;7.88;;;;;;;;;;4992172;28;20072;-77
2022/10/13 11:50:07;;;;;;;18.17;8.07;;;;;;;;;;4990790;28;20030;-77
2022/10/13 11:52:51;;;;;;;18.05;6.20;;;;;;;;;;4992119;28;20034;-77
2022/10/13 11:55:19;;;;;;;14.00;5.45;;;;;;;;;;4979101;28;20030;-78
2022/10/13 11:57:45;;;;;;;9.45;5.38;;;;;;;;;;4990611;28;20030;-76
2022/10/13 12:00:16;;;;;;;15.60;5.43;;;;;;;;;;4992088;28;20019;-76
2022/10/13 12:02:49;;;;;;;10.02;4.68;;;;;;;;;;4992830;28;20026;-77
2022/10/13 12:05:25;;;;;;;7.57;4.68;;;;;;;;;;4991999;28;20080;-77
2022/10/13 12:07:52;;;;;;;14.20;6.60;;;;;;;;;;4991472;28;20038;-78
2022/10/13 12:10:31;;;;;;;18.25;6.53;;;;;;;;;;4994195;28;20510;-77
2022/10/13 12:12:57;;;;;;;13.13;6.97;;;;;;;;;;4996456;28;20118;-76
2022/10/13 12:15:43;;;;;;;13.15;6.00;;;;;;;;;;4996052;28;20026;-77
2022/10/13 12:18:26;;;;;;;14.18;5.10;;;;;;;;;;4995342;28;20114;-77
2022/10/13 12:20:57;;;;;;;9.60;4.03;;;;;;;;;;4994670;28;20050;-79
2022/10/13 12:23:23;;;;;;;8.03;3.73;;;;;;;;;;4995595;28;20022;-75
2022/10/13 12:25:55;;;;;;;14.43;5.68;;;;;;;;;;4995854;28;20109;-74
2022/10/13 12:28:22;;;;;;;10.05;4.72;;;;;;;;;;4993602;28;20508;-75
2022/10/13 12:30:56;;;;;;;8.55;4.65;;;;;;;;;;4995673;28;20102;-76
2022/10/13 12:33:34;;;;;;;8.38;4.55;;;;;;;;;;4994344;28;20531;-75
2022/10/13 12:36:32;;;;;;;5.32;3.90;;;;;;;;;;4995784;28;20074;-76
2022/10/13 12:39:03;;;;;;;11.15;4.90;;;;;;;;;;4952288;28;20052;-77
2022/10/13 12:41:39;;;;;;;10.52;4.80;;;;;;;;;;4995133;28;20505;-75
2022/10/13 12:44:15;;;;;;;9.07;4.50;;;;;;;;;;4993998;28;20121;-76
2022/10/13 12:46:43;;;;;;;10.43;4.20;;;;;;;;;;4993686;28;20113;-79
2022/10/13 12:49:12;;;;;;;9.32;4.78;;;;;;;;;;4994971;28;20037;-76
2022/10/13 12:51:38;;;;;;;5.95;4.03;;;;;;;;;;4995197;28;20430;-77
2022/10/13 12:54:29;;;;;;;16.92;4.45;;;;;;;;;;4995180;28;20026;-76
2022/10/13 12:56:57;;;;;;;8.98;4.18;;;;;;;;;;4994146;28;20061;-76
2022/10/13 12:59:27;;;;;;;9.15;3.67;;;;;;;;;;4994917;28;20026;-77
2022/10/13 13:01:55;;;;;;;11.48;4.20;;;;;;;;;;4994829;28;20069;-76
2022/10/13 13:04:24;;;;;;;9.23;4.50;;;;;;;;;;4994853;28;20377;-77
2022/10/13 13:07:03;;;;;;;10.05;4.50;;;;;;;;;;4992565;28;20383;-77
2022/10/13 13:09:32;;;;;;;10.27;6.30;;;;;;;;;;4992073;28;20040;-77
2022/10/13 13:12:10;;;;;;;18.90;5.22;;;;;;;;;;5001047;28;20022;-76
2022/10/13 13:14:40;;;;;;;11.85;3.92;;;;;;;;;;5012754;28;20038;-78
2022/10/13 13:17:27;;;;;;;10.02;4.32;;;;;;;;;;5011135;28;20026;-75
2022/10/13 13:19:54;;;;;;;9.32;4.38;;;;;;;;;;5006721;28;20097;-74
2022/10/13 13:22:20;;;;;;;11.75;4.15;;;;;;;;;;4996990;28;20027;-77
2022/10/13 13:24:46;;;;;;;12.13;4.22;;;;;;;;;;4996427;28;20026;-76
2022/10/13 13:27:34;;;;;;;7.95;4.20;;;;;;;;;;4994872;28;20030;-74
2022/10/13 13:30:00;;;;;;;11.38;4.50;;;;;;;;;;4995387;28;20022;-75
2022/10/13 13:32:26;;;;;;;9.80;4.90;;;;;;;;;;4994232;28;20033;-76
2022/10/13 13:34:52;;;;;;;12.38;5.55;;;;;;;;;;4993629;28;20057;-77
2022/10/13 13:37:21;;;;;;;11.63;4.80;;;;;;;;;;4993398;28;20109;-77
2022/10/13 13:39:47;;;;;;;13.10;5.70;;;;;;;;;;4994661;28;20033;-77
2022/10/13 13:42:14;;;;;;;11.52;5.18;;;;;;;;;;4994746;28;20432;-77
2022/10/13 13:44:40;;;;;;;11.43;5.15;;;;;;;;;;4990438;28;20030;-78
2022/10/13 13:47:16;;;;;;;14.80;5.65;;;;;;;;;;4994062;28;20101;-75
2022/10/13 13:49:42;;;;;;;6.82;4.95;;;;;;;;;;4993290;28;20026;-78
2022/10/13 13:52:11;;;;;;;10.55;5.57;;;;;;;;;;4995099;28;20065;-77
2022/10/13 13:54:37;;;;;;;8.50;5.22;;;;;;;;;;4992881;28;20069;-76
2022/10/13 13:57:03;;;;;;;10.40;5.03;;;;;;;;;;4993898;28;20476;-80
2022/10/13 13:59:29;;;;;;;11.20;6.03;;;;;;;;;;4994777;28;20117;-76
2022/10/13 14:01:55;;;;;;;11.98;5.55;;;;;;;;;;4993636;28;20024;-77
2022/10/13 14:04:21;;;;;;;11.63;5.25;;;;;;;;;;4992750;28;20117;-76
2022/10/13 14:06:48;;;;;;;11.50;5.18;;;;;;;;;;4992696;28;20025;-77
2022/10/13 14:09:14;;;;;;;8.85;5.30;;;;;;;;;;4993623;28;20038;-76
2022/10/13 14:11:40;;;;;;;9.57;5.60;;;;;;;;;;4993737;28;20530;-77
2022/10/13 14:14:06;;;;;;;9.73;6.15;;;;;;;;;;4992133;28;20030;-78
2022/10/13 14:16:42;;;;;;;9.73;5.55;;;;;;;;;;4990687;28;20045;-77
2022/10/13 14:19:09;;;;;;;14.55;5.55;;;;;;;;;;4991649;28;20026;-78
2022/10/13 14:21:35;;;;;;;12.82;6.43;;;;;;;;;;4992033;28;20022;-77
2022/10/13 14:24:01;;;;;;;11.93;6.35;;;;;;;;;;4992186;28;20733;-77
2022/10/13 14:26:27;;;;;;;13.75;6.63;;;;;;;;;;4991801;28;20275;-79
2022/10/13 14:28:53;;;;;;;10.35;5.95;;;;;;;;;;4992717;28;20492;-75
2022/10/13 14:31:19;;;;;;;12.77;5.75;;;;;;;;;;4992303;28;20085;-77
2022/10/13 14:33:45;;;;;;;12.68;5.65;;;;;;;;;;4996403;28;20062;-78
2022/10/13 14:36:11;;;;;;;9.20;6.00;;;;;;;;;;4992952;28;20026;-78
2022/10/13 14:38:37;;;;;;;12.85;6.80;;;;;;;;;;4993514;28;20034;-77
2022/10/13 14:41:04;;;;;;;16.30;7.45;;;;;;;;;;4993376;28;20110;-76
2022/10/13 14:43:30;;;;;;;14.93;6.78;;;;;;;;;;4992590;28;20023;-78
2022/10/13 14:46:00;;;;;;;12.23;6.70;;;;;;;;;;4992959;28;20029;-74
2022/10/13 14:48:26;;;;;;;13.48;6.10;;;;;;;;;;4992484;28;20477;-77
2022/10/13 14:50:52;;;;;;;15.93;6.57;;;;;;;;;;4993090;28;20026;-75